createdAt,value
2022-08-29T00:01:36.275Z,25.30
2022-08-29T00:06:39.428Z,25.30
2022-08-29T00:11:43.486Z,25.27
2022-08-29T00:16:50.651Z,25.26
2022-08-29T00:21:53.823Z,25.24
2022-08-29T00:26:56.549Z,25.22
2022-08-29T00:32:00.961Z,25.20
2022-08-29T00:37:03.684Z,25.19
2022-08-29T00:42:06.682Z,25.14
2022-08-29T00:47:12.279Z,25.10
2022-08-29T00:52:16.290Z,25.08
2022-08-29T00:57:19.436Z,25.06
2022-08-29T01:02:23.905Z,25.03
2022-08-29T01:07:26.739Z,24.98
2022-08-29T01:12:29.431Z,24.94
2022-08-29T01:17:34.652Z,24.91
2022-08-29T01:22:57.578Z,24.89
2022-08-29T01:28:04.840Z,24.81
2022-08-29T01:33:07.517Z,24.76
2022-08-29T01:38:27.423Z,24.72
2022-08-29T01:43:31.604Z,24.66
2022-08-29T01:48:34.295Z,24.63
2022-08-29T01:53:37.021Z,24.59
2022-08-29T01:58:41.082Z,24.55
2022-08-29T02:03:43.809Z,24.51
2022-08-29T02:08:47.111Z,24.49
2022-08-29T02:13:52.551Z,24.45
2022-08-29T02:18:55.325Z,24.42
2022-08-29T02:24:07.513Z,24.39
2022-08-29T02:29:20.317Z,24.36
2022-08-29T02:34:23.196Z,24.33
2022-08-29T02:39:26.904Z,24.33
2022-08-29T02:44:31.227Z,24.30
2022-08-29T02:49:33.915Z,24.29
2022-08-29T02:54:37.333Z,24.28
2022-08-29T02:59:41.370Z,24.26
2022-08-29T03:04:44.123Z,24.23
2022-08-29T03:09:47.168Z,24.23
2022-08-29T03:14:51.271Z,24.21
2022-08-29T03:19:54.918Z,24.21
2022-08-29T03:24:57.667Z,24.15
2022-08-29T03:30:01.943Z,23.79
2022-08-29T03:35:05.055Z,23.58
2022-08-29T03:40:09.684Z,23.45
2022-08-29T03:45:15.569Z,23.48
2022-08-29T03:50:20.038Z,23.37
2022-08-29T03:55:22.877Z,23.29
2022-08-29T04:00:27.186Z,23.24
2022-08-29T04:05:29.939Z,23.22
2022-08-29T04:10:34.347Z,21.89
2022-08-29T04:15:40.069Z,20.86
2022-08-29T04:20:44.801Z,20.58
2022-08-29T04:25:47.531Z,20.27
2022-08-29T04:30:52.743Z,20.22
2022-08-29T04:35:55.570Z,20.10
2022-08-29T04:40:58.341Z,19.95
2022-08-29T04:46:02.556Z,19.35
2022-08-29T04:51:05.441Z,19.39
2022-08-29T04:56:09.287Z,19.43
2022-08-29T05:01:14.910Z,19.26
2022-08-29T05:06:22.410Z,19.32
2022-08-29T05:11:25.654Z,19.15
2022-08-29T05:16:30.809Z,20.09
2022-08-29T05:21:35.567Z,20.73
2022-08-29T05:26:39.882Z,21.14
2022-08-29T05:31:44.398Z,21.40
2022-08-29T05:36:48.307Z,21.59
2022-08-29T05:41:51.197Z,21.77
2022-08-29T05:46:55.238Z,21.92
2022-08-29T05:52:00.594Z,22.04
2022-08-29T05:57:03.421Z,22.15
2022-08-29T06:02:08.512Z,22.30
2022-08-29T06:07:11.440Z,22.38
2022-08-29T06:12:15.131Z,22.48
2022-08-29T06:17:19.252Z,22.57
2022-08-29T06:22:22.403Z,22.64
2022-08-29T06:27:25.091Z,22.73
2022-08-29T06:32:29.337Z,22.80
2022-08-29T06:37:32.070Z,22.89
2022-08-29T06:42:35.894Z,22.94
2022-08-29T06:47:40.915Z,23.01
2022-08-29T06:52:43.637Z,23.05
2022-08-29T06:57:49.838Z,23.13
2022-08-29T07:02:53.930Z,23.18
2022-08-29T07:07:57.259Z,23.23
2022-08-29T07:13:00.042Z,23.27
2022-08-29T07:18:04.199Z,23.32
2022-08-29T07:23:07.079Z,23.38
2022-08-29T07:28:11.480Z,23.43
2022-08-29T07:33:15.757Z,23.47
2022-08-29T07:38:18.596Z,23.49
2022-08-29T07:43:24.994Z,23.54
2022-08-29T07:48:31.450Z,23.57
2022-08-29T07:53:34.136Z,23.60
2022-08-29T07:58:37.136Z,23.63
2022-08-29T08:03:42.420Z,23.69
2022-08-29T08:08:45.573Z,23.72
2022-08-29T08:13:48.504Z,23.75
2022-08-29T08:18:52.696Z,23.80
2022-08-29T08:23:55.448Z,23.83
2022-08-29T08:28:58.511Z,23.85
2022-08-29T08:34:02.762Z,23.88
2022-08-29T08:39:05.620Z,23.91
2022-08-29T08:44:11.993Z,23.94
2022-08-29T08:49:18.126Z,23.97
2022-08-29T08:54:22.645Z,24.02
2022-08-29T08:59:26.548Z,24.06
2022-08-29T09:04:38.945Z,24.09
2022-08-29T09:09:46.906Z,24.11
2022-08-29T09:14:57.077Z,24.15
2022-08-29T09:20:01.464Z,24.17
2022-08-29T09:25:05.501Z,24.21
2022-08-29T09:30:10.854Z,24.21
2022-08-29T09:35:21.472Z,24.25
2022-08-29T09:40:24.474Z,24.27
2022-08-29T09:45:27.224Z,24.30
2022-08-29T09:50:31.883Z,24.33
2022-08-29T09:55:35.971Z,24.36
2022-08-29T10:00:40.579Z,24.37
2022-08-29T10:05:45.627Z,24.39
2022-08-29T10:10:52.393Z,24.43
2022-08-29T10:15:58.501Z,24.46
2022-08-29T10:21:10.249Z,24.47
2022-08-29T10:26:30.967Z,24.53
2022-08-29T10:31:38.061Z,24.55
2022-08-29T10:36:42.241Z,24.57
2022-08-29T10:41:51.021Z,24.58
2022-08-29T10:47:01.943Z,24.60
2022-08-29T10:52:12.207Z,24.64
2022-08-29T10:57:20.187Z,24.68
2022-08-29T11:02:25.791Z,24.74
2022-08-29T11:07:31.480Z,24.75
2022-08-29T11:12:43.692Z,24.79
2022-08-29T11:17:47.583Z,24.81
2022-08-29T11:22:53.420Z,24.85
2022-08-29T11:27:58.542Z,24.91
2022-08-29T11:33:06.755Z,24.95
2022-08-29T11:38:24.755Z,24.99
2022-08-29T11:43:28.865Z,25.02
2022-08-29T11:48:33.916Z,25.10
2022-08-29T11:53:38.056Z,25.15
2022-08-29T11:58:46.276Z,25.20
2022-08-29T12:03:49.338Z,25.32
2022-08-29T12:08:58.980Z,25.39
2022-08-29T12:14:04.981Z,25.35
2022-08-29T12:19:07.697Z,25.39
2022-08-29T12:24:31.394Z,25.43
2022-08-29T12:29:40.975Z,25.40
2022-08-29T12:34:54.458Z,25.45
2022-08-29T12:40:14.738Z,25.47
2022-08-29T12:45:19.191Z,25.40
2022-08-29T12:50:23.117Z,25.43
2022-08-29T12:55:29.235Z,25.40
2022-08-29T13:00:32.688Z,25.41
2022-08-29T13:05:36.734Z,25.43
2022-08-29T13:10:42.933Z,25.40
2022-08-29T13:15:45.655Z,25.41
2022-08-29T13:20:50.195Z,25.40
2022-08-29T13:25:57.361Z,25.43
2022-08-29T13:31:25.440Z,25.43
2022-08-29T13:36:32.552Z,25.43
2022-08-29T13:41:37.526Z,25.45
2022-08-29T13:46:41.853Z,25.43
2022-08-29T13:51:45.029Z,25.48
2022-08-29T13:56:50.107Z,25.49
2022-08-29T14:02:10.129Z,25.50
2022-08-29T14:07:16.982Z,25.54
2022-08-29T14:12:21.491Z,25.56
2022-08-29T14:17:36.478Z,25.60
2022-08-29T14:22:39.252Z,25.70
2022-08-29T14:27:44.204Z,25.78
2022-08-29T14:32:46.868Z,25.89
2022-08-29T14:37:49.999Z,25.91
2022-08-29T14:42:54.151Z,25.99
2022-08-29T14:47:56.878Z,26.05
2022-08-29T14:52:59.575Z,26.09
2022-08-29T14:58:03.759Z,26.13
2022-08-29T15:03:06.611Z,26.18
2022-08-29T15:08:11.367Z,26.22
2022-08-29T15:13:19.687Z,26.27
2022-08-29T15:18:48.384Z,26.32
2022-08-29T15:23:45.851Z,26.37
2022-08-29T15:28:49.856Z,26.40
2022-08-29T15:33:52.605Z,26.40
2022-08-29T15:38:55.274Z,26.42
2022-08-29T15:43:59.312Z,26.45
2022-08-29T15:49:02.376Z,26.49
2022-08-29T15:54:05.521Z,26.47
2022-08-29T15:59:10.653Z,26.47
2022-08-29T16:04:13.611Z,26.52
2022-08-29T16:09:16.500Z,26.51
2022-08-29T16:19:43.945Z,26.43
2022-08-29T16:24:46.828Z,26.37
2022-08-29T16:29:51.111Z,26.78
2022-08-29T16:34:53.848Z,26.73
2022-08-29T16:39:56.639Z,27.31
2022-08-29T16:45:01.136Z,27.68
2022-08-29T16:50:04.423Z,26.83
2022-08-29T16:55:07.996Z,26.49
2022-08-29T17:00:13.876Z,26.30
2022-08-29T17:05:17.028Z,26.20
2022-08-29T17:10:18.842Z,26.13
2022-08-29T17:15:22.079Z,26.14
2022-08-29T17:20:24.884Z,26.08
2022-08-29T17:25:27.876Z,26.05
2022-08-29T17:30:31.997Z,26.06
2022-08-29T17:35:34.713Z,26.22
2022-08-29T17:40:37.523Z,26.32
2022-08-29T17:45:41.645Z,26.22
2022-08-29T17:50:44.645Z,26.11
2022-08-29T17:55:47.337Z,26.11
2022-08-29T18:00:52.207Z,26.15
2022-08-29T18:05:54.935Z,26.11
2022-08-29T18:10:57.704Z,26.10
2022-08-29T18:16:01.914Z,26.06
2022-08-29T18:21:05.340Z,26.06
2022-08-29T18:26:08.005Z,26.05
2022-08-29T18:31:12.635Z,26.05
2022-08-29T18:36:21.353Z,26.07
2022-08-29T18:41:24.127Z,25.98
2022-08-29T18:46:28.439Z,26.00
2022-08-29T18:51:32.943Z,25.95
2022-08-29T18:56:35.631Z,25.91
2022-08-29T19:01:41.585Z,25.95
2022-08-29T19:06:44.362Z,25.95
2022-08-29T19:11:47.195Z,25.90
2022-08-29T19:16:51.297Z,25.93
2022-08-29T19:21:56.636Z,25.90
2022-08-29T19:26:59.374Z,25.92
2022-08-29T19:32:03.800Z,25.90
2022-08-29T19:37:06.778Z,25.85
2022-08-29T19:42:16.210Z,25.82
2022-08-29T19:47:20.997Z,25.78
2022-08-29T19:52:23.773Z,25.77
2022-08-29T19:57:27.027Z,25.78
2022-08-29T20:02:32.273Z,25.78
2022-08-29T20:07:35.264Z,25.72
2022-08-29T20:12:38.181Z,25.78
2022-08-29T20:17:43.130Z,25.79
2022-08-29T20:22:45.872Z,25.67
2022-08-29T20:27:50.147Z,25.68
2022-08-29T20:32:54.402Z,25.76
2022-08-29T20:37:57.184Z,25.63
2022-08-29T20:43:00.165Z,25.72
2022-08-29T20:48:05.092Z,25.59
2022-08-29T20:53:08.041Z,25.60
2022-08-29T20:58:12.028Z,25.56
2022-08-29T21:03:33.652Z,25.67
2022-08-29T21:08:37.573Z,25.67
2022-08-29T21:13:41.514Z,25.50
2022-08-29T21:18:45.578Z,25.66
2022-08-29T21:23:48.334Z,25.58
2022-08-29T21:28:51.039Z,25.50
2022-08-29T21:33:57.728Z,25.48
2022-08-29T21:39:01.327Z,25.54
2022-08-29T21:44:04.549Z,25.56
2022-08-29T21:49:08.572Z,25.53
2022-08-29T21:54:13.673Z,25.50
2022-08-29T21:59:17.601Z,25.48
2022-08-29T22:04:28.388Z,25.44
2022-08-29T22:09:32.083Z,25.40
2022-08-29T22:14:52.544Z,25.41
2022-08-29T22:19:56.646Z,25.37
2022-08-29T22:24:59.852Z,25.27
2022-08-29T22:30:02.562Z,25.28
2022-08-29T22:35:07.655Z,25.23
2022-08-29T22:40:12.364Z,25.25
2022-08-29T22:45:15.614Z,25.14
2022-08-29T22:50:21.205Z,25.12
2022-08-29T23:00:26.605Z,25.09
2022-08-29T23:05:31.185Z,24.99
2022-08-29T23:10:34.066Z,24.95
2022-08-29T23:15:37.014Z,24.92
2022-08-29T23:20:41.133Z,24.94
2022-08-29T23:25:43.974Z,24.86
2022-08-29T23:30:47.165Z,24.82
2022-08-29T23:35:51.206Z,24.77
2022-08-29T23:40:55.276Z,24.80
2022-08-29T23:45:58.070Z,24.72
2022-08-29T23:51:05.832Z,24.71
2022-08-29T23:56:09.399Z,24.73
